Time;durP1;ratioP1;P1;durP2;ratioP2;P2;SDS_P1;SDS_P2;PMS_P1;PMS_P2;Temp;Humidity;BMP_temperature;BMP_pressure;BME280_temperature;BME280_humidity;BME280_pressure;Samples;Min_cycle;Max_cycle;Signal;HPM_P1;HPM_P2
2021/12/18 00:01:49;;;;;;;14.60;6.80;;;;;;;2.25;85.72;100140.34;421907;1309;97137;-41
2021/12/18 00:11:57;;;;;;;18.90;6.50;;;;;;;2.27;85.61;100138.66;422218;1309;109754;-40
2021/12/18 00:22:03;;;;;;;18.20;6.70;;;;;;;2.29;85.77;100144.05;422640;1309;109037;-41
2021/12/18 00:32:11;;;;;;;22.60;10.20;;;;;;;2.25;85.85;100141.31;422523;1306;95631;-41
2021/12/18 00:42:36;;;;;;;17.10;8.40;;;;;;;2.14;85.94;100147.73;422507;1309;95358;-40
2021/12/18 00:52:43;;;;;;;16.10;7.60;;;;;;;2.12;85.90;100164.73;422128;1307;108090;-41
2021/12/18 01:02:51;;;;;;;19.20;7.20;;;;;;;2.11;86.12;100173.39;422289;1309;108873;-42
2021/12/18 01:13:01;;;;;;;21.10;5.70;;;;;;;2.09;86.13;100167.93;421932;1309;96177;-42
2021/12/18 01:23:08;;;;;;;30.00;8.30;;;;;;;2.03;86.19;100167.14;422481;1310;108985;-41
2021/12/18 01:33:14;;;;;;;17.20;7.10;;;;;;;1.98;86.29;100192.00;422192;1309;108825;-40
2021/12/18 01:53:43;;;;;;;8.70;4.30;;;;;;;2.00;86.17;100189.84;422322;1310;108816;-40
2021/12/18 02:03:51;;;;;;;17.80;6.10;;;;;;;2.01;86.29;100189.48;422506;1310;96224;-40
2021/12/18 02:24:14;;;;;;;11.40;5.30;;;;;;;1.95;86.09;100197.11;422407;1310;111626;-41
2021/12/18 02:34:26;;;;;;;13.30;7.20;;;;;;;1.99;86.21;100192.00;422711;1310;108880;-41
2021/12/18 02:44:34;;;;;;;13.60;7.50;;;;;;;2.04;86.10;100197.88;421455;1312;96201;-40
2021/12/18 02:54:39;;;;;;;28.10;10.80;;;;;;;1.94;86.33;100198.92;422481;1309;109788;-40
2021/12/18 03:04:52;;;;;;;24.00;10.70;;;;;;;1.86;86.44;100183.63;422175;1310;109610;-40
2021/12/18 03:25:28;;;;;;;26.10;7.60;;;;;;;1.80;86.38;100186.20;421888;1310;96630;-39
2021/12/18 03:35:35;;;;;;;16.00;7.20;;;;;;;1.83;86.34;100188.79;421713;1312;109767;-40
2021/12/18 03:45:43;;;;;;;30.80;11.20;;;;;;;1.82;86.46;100187.83;422339;1309;108665;-40
2021/12/18 03:55:50;;;;;;;16.50;8.80;;;;;;;1.76;86.53;100191.07;422244;1309;96222;-41
2021/12/18 04:05:57;;;;;;;22.90;10.60;;;;;;;1.72;86.67;100202.46;418064;1310;5701204;-42
2021/12/18 04:16:05;;;;;;;22.90;9.80;;;;;;;1.66;86.35;100202.27;422289;1310;108990;-42
2021/12/18 04:26:13;;;;;;;19.10;10.00;;;;;;;1.70;86.39;100191.70;421935;1309;96418;-40
2021/12/18 04:36:21;;;;;;;21.30;11.40;;;;;;;1.73;86.30;100169.10;422250;1309;109764;-41
2021/12/18 04:46:29;;;;;;;27.40;9.70;;;;;;;1.68;86.35;100163.48;422365;1310;108892;-40
2021/12/18 04:56:36;;;;;;;24.70;9.90;;;;;;;1.56;86.40;100166.67;422274;1310;108814;-40
2021/12/18 05:16:51;;;;;;;15.90;6.90;;;;;;;1.55;86.23;100178.89;422197;1309;108355;-41
2021/12/18 05:26:58;;;;;;;17.40;7.30;;;;;;;1.60;86.20;100188.94;422209;1310;98040;-40
2021/12/18 05:47:23;;;;;;;25.70;10.80;;;;;;;1.53;86.40;100176.81;422416;1309;108895;-40
2021/12/18 05:57:31;;;;;;;17.80;9.50;;;;;;;1.52;86.26;100177.95;422247;1309;98609;-39
2021/12/18 06:17:46;;;;;;;31.10;12.10;;;;;;;1.66;86.29;100211.11;422260;1309;108875;-41
2021/12/18 06:27:53;;;;;;;29.50;13.40;;;;;;;1.66;86.39;100233.58;422141;1310;97932;-40
2021/12/18 06:38:01;;;;;;;21.80;11.70;;;;;;;1.60;86.26;100236.50;422436;1309;111904;-40
2021/12/18 06:48:08;;;;;;;20.40;10.20;;;;;;;1.54;85.92;100215.77;422199;1313;108794;-42
2021/12/18 06:58:15;;;;;;;19.20;8.50;;;;;;;1.55;86.02;100216.05;422554;1312;97623;-41
2021/12/18 07:08:23;;;;;;;17.80;9.00;;;;;;;1.57;85.89;100203.17;422617;1307;111336;-40
2021/12/18 07:28:37;;;;;;;23.10;10.60;;;;;;;1.54;86.03;100177.41;422672;1313;98607;-39
2021/12/18 07:38:44;;;;;;;16.30;8.00;;;;;;;1.58;85.97;100179.53;422785;1313;111376;-42
2021/12/18 07:48:52;;;;;;;11.30;6.00;;;;;;;1.76;85.85;100175.06;422764;1307;109150;-41
2021/12/18 07:58:59;;;;;;;22.80;10.10;;;;;;;1.89;85.83;100154.89;422592;1313;97938;-41
2021/12/18 08:09:06;;;;;;;21.50;10.20;;;;;;;1.90;85.85;100149.05;422711;1313;111028;-40
2021/12/18 08:19:13;;;;;;;14.50;7.00;;;;;;;1.97;85.68;100148.97;422250;1313;109017;-41
2021/12/18 08:39:27;;;;;;;34.90;16.00;;;;;;;2.09;85.50;100147.26;422507;1308;110987;-41
2021/12/18 08:49:34;;;;;;;23.20;10.80;;;;;;;1.98;85.29;100154.59;422948;1307;109250;-40
2021/12/18 08:59:42;;;;;;;23.70;13.70;;;;;;;2.03;85.26;100153.44;422400;1311;97978;-41
2021/12/18 09:09:49;;;;;;;40.90;17.40;;;;;;;2.08;85.20;100136.95;422531;1313;111489;-41
2021/12/18 09:19:55;;;;;;;30.30;14.60;;;;;;;2.06;85.18;100141.95;422629;1307;108729;-41
2021/12/18 09:30:04;;;;;;;30.10;12.80;;;;;;;2.07;84.88;100149.73;422306;1307;98566;-40
2021/12/18 09:40:13;;;;;;;22.00;11.60;;;;;;;2.05;84.84;100141.24;422578;1313;111829;-40
2021/12/18 09:50:24;;;;;;;23.60;13.60;;;;;;;2.09;84.94;100134.45;422498;1311;108897;-40
2021/12/18 10:00:32;;;;;;;28.50;14.70;;;;;;;2.09;85.03;100120.85;422463;1307;98613;-41
2021/12/18 10:21:07;;;;;;;17.70;8.40;;;;;;;2.17;84.79;100098.27;422498;1307;108915;-40
2021/12/18 10:31:15;;;;;;;17.70;10.70;;;;;;;2.22;84.84;100093.91;422361;1307;98579;-41
2021/12/18 10:41:23;;;;;;;26.80;15.90;;;;;;;2.25;84.90;100076.10;422671;1307;111152;-40
2021/12/18 10:51:31;;;;;;;23.20;13.50;;;;;;;2.24;85.06;100059.31;422401;1307;108309;-41
2021/12/18 11:22:07;;;;;;;29.10;14.70;;;;;;;2.35;85.04;100003.59;422635;1307;109064;-41
2021/12/18 11:32:14;;;;;;;23.00;14.50;;;;;;;2.38;85.19;99983.69;422307;1307;108959;-40
2021/12/18 11:42:28;;;;;;;22.00;12.70;;;;;;;2.54;85.15;99950.98;422730;1307;97568;-41
2021/12/18 11:52:54;;;;;;;21.60;9.30;;;;;;;2.67;85.00;99943.16;422533;1306;109063;-40
2021/12/18 12:13:12;;;;;;;33.70;14.40;;;;;;;2.48;84.89;99934.53;418712;1307;5569324;-41
2021/12/18 12:23:19;;;;;;;20.20;10.00;;;;;;;2.41;84.91;99926.52;422035;1309;107905;-41
2021/12/18 12:33:26;;;;;;;14.20;9.90;;;;;;;2.57;85.06;99903.89;422154;1313;97058;-40
2021/12/18 12:43:41;;;;;;;16.50;10.70;;;;;;;2.69;84.90;99897.22;422585;1310;107770;-40
2021/12/18 12:53:53;;;;;;;24.20;13.50;;;;;;;2.62;84.95;99879.75;422514;1307;98024;-41
2021/12/18 13:04:01;;;;;;;23.30;12.80;;;;;;;2.62;84.96;99887.98;422738;1307;111113;-42
2021/12/18 13:14:14;;;;;;;21.90;10.40;;;;;;;2.63;84.81;99888.39;422404;1307;108376;-41
2021/12/18 13:24:23;;;;;;;28.80;15.70;;;;;;;2.55;85.08;99876.08;422557;1307;98072;-42
2021/12/18 13:34:37;;;;;;;36.00;21.00;;;;;;;2.48;85.11;99875.74;422553;1307;110610;-43
2021/12/18 13:44:49;;;;;;;25.10;14.40;;;;;;;2.37;85.12;99861.11;423137;1307;109277;-41
2021/12/18 14:05:01;;;;;;;25.30;15.00;;;;;;;2.33;85.31;99850.85;422083;1310;111003;-40
2021/12/18 14:15:19;;;;;;;27.80;15.00;;;;;;;2.29;85.49;99831.92;422192;1309;107197;-40
2021/12/18 14:25:27;;;;;;;44.10;22.70;;;;;;;2.21;85.82;99804.58;422116;1308;97946;-41
2021/12/18 14:35:34;;;;;;;41.50;21.40;;;;;;;2.14;86.13;99806.83;422103;1310;111171;-42
2021/12/18 14:55:48;;;;;;;34.70;19.60;;;;;;;2.23;86.52;99793.73;422623;1307;96674;-41
2021/12/18 15:16:10;;;;;;;33.00;19.70;;;;;;;2.34;86.79;99792.24;422134;1310;108856;-42
2021/12/18 15:26:20;;;;;;;34.60;19.70;;;;;;;2.38;86.89;99768.23;422540;1307;97558;-39
2021/12/18 15:36:26;;;;;;;87.90;36.60;;;;;;;2.40;87.15;99744.45;422388;1309;109114;-39
2021/12/18 15:46:34;;;;;;;32.30;21.40;;;;;;;2.42;87.41;99724.70;422211;1307;98252;-41
2021/12/18 15:56:38;;;;;;;32.10;19.70;;;;;;;2.50;87.51;99691.94;422218;1309;111028;-41
2021/12/18 16:06:45;;;;;;;35.20;18.80;;;;;;;2.59;87.57;99680.24;422417;1307;108741;-41
2021/12/18 16:16:59;;;;;;;34.10;21.40;;;;;;;2.64;87.66;99678.27;422610;1307;98616;-41
2021/12/18 16:27:06;;;;;;;22.80;14.80;;;;;;;2.70;87.73;99674.60;422395;1307;108873;-40
2021/12/18 16:37:13;;;;;;;31.40;18.40;;;;;;;2.73;87.80;99654.60;422429;1307;97930;-41
2021/12/18 16:47:21;;;;;;;33.50;19.70;;;;;;;2.68;88.19;99627.91;422666;1307;111193;-42
2021/12/18 16:57:29;;;;;;;24.50;14.80;;;;;;;2.72;88.12;99613.57;422437;1307;108920;-41
2021/12/18 17:07:36;;;;;;;21.40;13.70;;;;;;;2.77;88.26;99629.39;422398;1307;97912;-41
2021/12/18 17:18:04;;;;;;;22.10;13.40;;;;;;;2.86;88.23;99631.40;422407;1307;109440;-40
2021/12/18 17:28:11;;;;;;;22.40;15.70;;;;;;;2.90;88.38;99620.52;422537;1307;97587;-41
2021/12/18 17:38:19;;;;;;;16.50;11.10;;;;;;;2.93;88.38;99629.60;422533;1307;111283;-41
2021/12/18 17:48:26;;;;;;;34.80;17.60;;;;;;;2.93;88.52;99613.70;422776;1307;108897;-41
2021/12/18 17:58:32;;;;;;;22.50;12.80;;;;;;;2.89;88.66;99607.68;422437;1307;97533;-40
2021/12/18 18:18:47;;;;;;;21.20;13.40;;;;;;;2.98;89.00;99596.50;422660;1307;109605;-41
2021/12/18 18:28:53;;;;;;;33.50;14.10;;;;;;;3.04;89.02;99583.79;422346;1307;98076;-40
2021/12/18 18:39:03;;;;;;;21.90;12.10;;;;;;;3.11;89.08;99557.34;422426;1307;109059;-40
2021/12/18 18:49:11;;;;;;;28.60;16.80;;;;;;;3.15;89.17;99545.42;422567;1307;97552;-42
2021/12/18 18:59:16;;;;;;;27.80;14.80;;;;;;;3.19;89.33;99546.91;422494;1307;110562;-41
2021/12/18 19:09:24;;;;;;;24.90;15.20;;;;;;;3.21;89.51;99541.67;422381;1307;109691;-41
2021/12/18 19:29:42;;;;;;;25.70;14.20;;;;;;;3.28;89.84;99499.57;422426;1307;108356;-42
2021/12/18 19:39:50;;;;;;;22.20;12.00;;;;;;;3.33;89.99;99489.86;422478;1310;97588;-41
2021/12/18 19:49:58;;;;;;;19.50;11.40;;;;;;;3.39;90.32;99479.30;422474;1307;111060;-41
2021/12/18 20:00:08;;;;;;;30.40;15.70;;;;;;;3.44;90.62;99469.04;422500;1307;108809;-43
2021/12/18 20:10:17;;;;;;;28.30;15.80;;;;;;;3.49;90.96;99450.73;418592;1307;5856026;-40
2021/12/18 20:20:27;;;;;;;17.70;11.30;;;;;;;3.52;91.36;99436.38;422536;1307;108823;-43
2021/12/18 20:30:35;;;;;;;20.50;11.50;;;;;;;3.56;91.45;99422.73;422492;1307;97542;-41
2021/12/18 20:40:43;;;;;;;14.60;9.60;;;;;;;3.60;91.59;99412.92;422672;1307;111163;-40
2021/12/18 21:01:04;;;;;;;12.90;8.90;;;;;;;3.65;92.06;99373.77;422741;1307;96733;-41
2021/12/18 21:31:29;;;;;;;8.10;6.70;;;;;;;3.66;92.23;99353.66;422390;1307;111124;-41
2021/12/18 21:41:38;;;;;;;8.80;7.70;;;;;;;3.66;92.29;99349.41;422658;1307;107004;-42
2021/12/18 21:51:45;;;;;;;9.00;7.50;;;;;;;3.62;92.80;99328.67;422526;1307;98025;-42
2021/12/18 22:01:52;;;;;;;10.00;6.10;;;;;;;3.61;92.84;99310.44;422482;1307;108363;-43
2021/12/18 22:11:59;;;;;;;8.40;4.80;;;;;;;3.55;93.19;99276.39;422542;1307;97958;-40
2021/12/18 22:22:13;;;;;;;7.90;5.30;;;;;;;3.52;93.14;99251.98;422627;1307;111221;-41
2021/12/18 22:42:26;;;;;;;10.40;5.70;;;;;;;3.61;93.03;99223.65;422512;1307;97967;-41
2021/12/18 22:52:33;;;;;;;3.90;3.30;;;;;;;3.66;93.29;99225.13;422548;1307;109039;-41
2021/12/18 23:02:40;;;;;;;7.70;4.40;;;;;;;3.70;93.24;99225.88;422586;1307;97936;-42
2021/12/18 23:12:53;;;;;;;3.30;2.40;;;;;;;3.75;93.14;99203.39;422525;1307;110595;-41
2021/12/18 23:23:01;;;;;;;11.50;5.70;;;;;;;3.79;93.01;99186.91;422602;1307;106766;-41
2021/12/18 23:33:09;;;;;;;3.20;2.50;;;;;;;3.82;93.02;99174.01;422481;1307;97589;-39
2021/12/18 23:43:41;;;;;;;4.40;3.90;;;;;;;3.86;92.94;99171.33;422491;1307;108875;-40
2021/12/18 23:53:44;;;;;;;4.00;3.60;;;;;;;3.89;92.95;99149.47;422534;1307;98131;-42
